M I D A S
Marine Information and Data Acquisition System
Tripno 1758 of the Zeeleeuw from 2009-08-31 08:15:00 to 2009-08-31 12:35:00
Back to CruiseResearch ActivitiesStationsMapUnderway DataData graphs

EquipmentUnitsComment
TimeDGPSUTC
LatitudeDGPSDM.mWGS84
LongitudeDGPSDM.mWGS84
HeadingGyrodeg 
SOGDGPSknotsSpeed over ground
COGDGPSdegCourse over ground
DepthEcho soundermeters200 kHz
Missing or incorrect values are displayed as -999
Navigation data collected by the RV Zeeleeuw from 2009-08-31 08:15:00 to 2009-08-31 12:35:00
Time Latitude Longitude Heading SOG COG Depth
2009-08-31 08:17:10 51°26.766 2°49.422 20.1 6.29 19 -999
2009-08-31 08:19:10 51°26.843 2°49.45 331.6 1.19 16 -999
2009-08-31 08:21:10 51°26.874 2°49.469 312.6 0.9 29 -999
2009-08-31 08:23:10 51°26.897 2°49.496 303.3 0.9 37 -999
2009-08-31 08:25:10 51°26.921 2°49.534 304 1 48 -999
2009-08-31 08:27:10 51°26.942 2°49.579 312 1 57 -999
2009-08-31 08:29:10 51°26.973 2°49.601 312.8 2.1 326 -999
2009-08-31 08:31:10 51°26.88 2°49.544 181.6 7.7 179 -999
2009-08-31 08:33:10 51°26.531 2°49.579 177.6 10.69 175 -999
2009-08-31 08:35:10 51°26.175 2°49.672 173.5 11 170 -999
2009-08-31 08:37:10 51°25.824 2°49.792 172.9 10.69 167 -999
2009-08-31 08:39:10 51°25.473 2°49.908 172.5 10.8 167 -999
2009-08-31 08:41:10 51°25.123 2°50.024 172.6 10.9 168 -999
2009-08-31 08:43:10 51°24.77 2°50.144 173 10.8 168 -999
2009-08-31 08:45:10 51°24.417 2°50.263 173.3 10.8 167 -999
2009-08-31 08:47:10 51°24.065 2°50.375 172.9 10.69 168 -999
2009-08-31 08:49:10 51°23.712 2°50.487 173.9 10.9 167 -999
2009-08-31 08:51:10 51°23.359 2°50.597 174.3 10.8 168 -999
2009-08-31 08:53:10 51°23.005 2°50.706 173.5 10.9 170 -999
2009-08-31 08:55:10 51°22.65 2°50.823 172.5 10.8 168 -999
2009-08-31 08:57:10 51°22.298 2°50.948 172.1 10.8 167 -999
2009-08-31 08:59:10 51°21.947 2°51.063 172.8 10.69 168 -999
2009-08-31 09:01:10 51°21.595 2°51.169 174.3 10.69 169 -999
2009-08-31 09:03:10 51°21.241 2°51.279 173.9 10.8 169 -999
2009-08-31 09:05:10 51°20.886 2°51.366 175.6 10.69 173 -999
2009-08-31 09:07:10 51°20.53 2°51.458 175.5 10.8 171 -999
2009-08-31 09:09:10 51°20.174 2°51.549 176.1 10.8 172 -999
2009-08-31 09:11:10 51°19.818 2°51.638 176.4 10.69 172 -999
2009-08-31 09:13:10 51°19.464 2°51.727 174.1 10.69 170 -999
2009-08-31 09:15:10 51°19.116 2°51.823 174.9 10.59 171 -999
2009-08-31 09:17:10 51°18.766 2°51.912 175.9 10.59 172 -999
2009-08-31 09:19:10 51°18.417 2°51.972 178.9 10.5 174 -999
2009-08-31 09:21:10 51°18.066 2°52.025 177.6 10.59 175 -999
2009-08-31 09:23:10 51°17.714 2°52.072 178.5 10.59 174 -999
2009-08-31 09:25:10 51°17.368 2°52.177 166.8 10.69 162 -999
2009-08-31 09:27:10 51°17.041 2°52.418 155.9 10.9 151 -999
2009-08-31 09:29:10 51°16.728 2°52.71 154.5 10.8 151 -999
2009-08-31 09:31:10 51°16.406 2°52.994 156.9 11.09 151 -999
2009-08-31 09:33:10 51°16.086 2°53.281 156.8 11.09 153 -999
2009-08-31 09:35:10 51°15.765 2°53.567 156.9 11.09 153 -999
2009-08-31 09:37:10 51°15.445 2°53.857 151.5 11.19 146 -999
2009-08-31 09:39:10 51°15.209 2°54.123 149.1 5.2 133 -999
2009-08-31 09:41:10 51°15.16 2°54.306 128.1 3.29 107 -999
2009-08-31 09:43:10 51°15.132 2°54.449 135.5 2.7 106 -999
2009-08-31 09:45:10 51°15.099 2°54.575 146 3 123 -999
2009-08-31 09:47:10 51°15.006 2°54.737 146.9 3.29 124 -999
2009-08-31 09:49:10 51°14.955 2°54.853 162.9 2.1 130 -999
2009-08-31 09:51:10 51°14.912 2°54.927 173.5 1.8 135 -999
2009-08-31 09:53:10 51°14.87 2°54.994 171.1 1.89 132 -999
2009-08-31 09:55:10 51°14.829 2°55.037 193.1 1.3 154 -999
2009-08-31 09:57:10 51°14.793 2°55.051 202 1.1 170 -999
2009-08-31 09:59:10 51°14.634 2°55.019 194.1 7.4 188 -999
2009-08-31 10:01:10 51°14.377 2°55.075 159.5 8.3 149 -999
2009-08-31 10:03:10 51°14.165 2°55.376 138.8 8.5 143 -999
2009-08-31 10:05:10 51°13.943 2°55.543 159.5 6.7 156 -999
2009-08-31 10:07:10 51°13.762 2°55.709 141.5 5.4 138 -999
2009-08-31 10:09:10 51°13.688 2°55.867 128.9 3 126 -999
2009-08-31 10:11:10 51°13.666 2°55.945 101.4 0.29 85 -999
2009-08-31 10:13:10 51°13.662 2°55.959 129.3 0.29 149 -999
2009-08-31 10:15:10 51°13.663 2°55.959 129   45 -999